sensor_id;sensor_type;location;lat;lon;timestamp;P1;durP1;ratioP1;P2;durP2;ratioP2
9892;SDS011;4985;49.092;8.542;2023-02-28T00:00:34;1.70;;;1.37;;
9892;SDS011;4985;49.092;8.542;2023-02-28T00:03:01;1.77;;;1.47;;
9892;SDS011;4985;49.092;8.542;2023-02-28T00:05:28;1.37;;;1.20;;
9892;SDS011;4985;49.092;8.542;2023-02-28T00:07:55;2.03;;;1.50;;
9892;SDS011;4985;49.092;8.542;2023-02-28T00:10:22;2.43;;;1.50;;
9892;SDS011;4985;49.092;8.542;2023-02-28T00:12:51;1.80;;;1.10;;
9892;SDS011;4985;49.092;8.542;2023-02-28T00:15:21;2.00;;;1.37;;
9892;SDS011;4985;49.092;8.542;2023-02-28T00:17:50;1.93;;;1.47;;
9892;SDS011;4985;49.092;8.542;2023-02-28T00:20:17;4.03;;;1.57;;
9892;SDS011;4985;49.092;8.542;2023-02-28T00:22:44;1.40;;;1.30;;
9892;SDS011;4985;49.092;8.542;2023-02-28T00:25:14;1.57;;;1.47;;
9892;SDS011;4985;49.092;8.542;2023-02-28T00:27:41;1.50;;;1.40;;
9892;SDS011;4985;49.092;8.542;2023-02-28T00:30:09;1.63;;;1.37;;
9892;SDS011;4985;49.092;8.542;2023-02-28T00:32:37;1.97;;;1.73;;
9892;SDS011;4985;49.092;8.542;2023-02-28T00:35:06;2.10;;;1.73;;
9892;SDS011;4985;49.092;8.542;2023-02-28T00:37:34;2.20;;;1.67;;
9892;SDS011;4985;49.092;8.542;2023-02-28T00:40:01;1.57;;;1.47;;
9892;SDS011;4985;49.092;8.542;2023-02-28T00:42:30;3.63;;;1.40;;
9892;SDS011;4985;49.092;8.542;2023-02-28T00:44:57;1.63;;;1.50;;
9892;SDS011;4985;49.092;8.542;2023-02-28T00:47:25;1.73;;;1.57;;
9892;SDS011;4985;49.092;8.542;2023-02-28T00:49:51;1.70;;;1.57;;
9892;SDS011;4985;49.092;8.542;2023-02-28T00:52:19;1.57;;;1.27;;
9892;SDS011;4985;49.092;8.542;2023-02-28T00:54:46;1.87;;;1.73;;
9892;SDS011;4985;49.092;8.542;2023-02-28T00:57:13;1.43;;;1.33;;
9892;SDS011;4985;49.092;8.542;2023-02-28T00:59:39;1.67;;;1.47;;
9892;SDS011;4985;49.092;8.542;2023-02-28T01:02:06;2.60;;;1.43;;
9892;SDS011;4985;49.092;8.542;2023-02-28T01:04:32;1.57;;;1.37;;
9892;SDS011;4985;49.092;8.542;2023-02-28T01:06:59;2.03;;;1.40;;
9892;SDS011;4985;49.092;8.542;2023-02-28T01:09:27;1.57;;;1.47;;
9892;SDS011;4985;49.092;8.542;2023-02-28T01:11:54;2.10;;;1.50;;
9892;SDS011;4985;49.092;8.542;2023-02-28T01:14:20;1.97;;;1.37;;
9892;SDS011;4985;49.092;8.542;2023-02-28T01:16:47;1.93;;;1.53;;
9892;SDS011;4985;49.092;8.542;2023-02-28T01:19:13;2.20;;;1.43;;
9892;SDS011;4985;49.092;8.542;2023-02-28T01:21:40;1.47;;;1.17;;
9892;SDS011;4985;49.092;8.542;2023-02-28T01:24:06;2.03;;;1.40;;
9892;SDS011;4985;49.092;8.542;2023-02-28T01:26:35;1.63;;;1.43;;
9892;SDS011;4985;49.092;8.542;2023-02-28T01:29:02;2.13;;;1.30;;
9892;SDS011;4985;49.092;8.542;2023-02-28T01:31:28;2.20;;;1.57;;
9892;SDS011;4985;49.092;8.542;2023-02-28T01:33:55;1.37;;;1.27;;
9892;SDS011;4985;49.092;8.542;2023-02-28T01:36:22;3.30;;;1.63;;
9892;SDS011;4985;49.092;8.542;2023-02-28T01:38:50;1.47;;;1.27;;
9892;SDS011;4985;49.092;8.542;2023-02-28T01:41:18;1.57;;;1.30;;
9892;SDS011;4985;49.092;8.542;2023-02-28T01:43:58;1.30;;;1.20;;
9892;SDS011;4985;49.092;8.542;2023-02-28T01:46:28;1.63;;;1.37;;
9892;SDS011;4985;49.092;8.542;2023-02-28T01:48:57;1.83;;;1.50;;
9892;SDS011;4985;49.092;8.542;2023-02-28T01:51:29;2.63;;;1.60;;
9892;SDS011;4985;49.092;8.542;2023-02-28T01:53:59;5.87;;;1.70;;
9892;SDS011;4985;49.092;8.542;2023-02-28T01:56:32;2.43;;;1.77;;
9892;SDS011;4985;49.092;8.542;2023-02-28T01:59:03;1.83;;;1.60;;
9892;SDS011;4985;49.092;8.542;2023-02-28T02:01:30;2.10;;;1.60;;
9892;SDS011;4985;49.092;8.542;2023-02-28T02:03:57;2.07;;;1.47;;
9892;SDS011;4985;49.092;8.542;2023-02-28T02:06:28;1.50;;;1.40;;
9892;SDS011;4985;49.092;8.542;2023-02-28T02:08:56;1.13;;;1.03;;
9892;SDS011;4985;49.092;8.542;2023-02-28T02:11:23;1.67;;;1.57;;
9892;SDS011;4985;49.092;8.542;2023-02-28T02:14:12;1.73;;;1.43;;
9892;SDS011;4985;49.092;8.542;2023-02-28T02:17:04;1.60;;;1.50;;
9892;SDS011;4985;49.092;8.542;2023-02-28T02:25:58;2.63;;;1.37;;
9892;SDS011;4985;49.092;8.542;2023-02-28T02:28:50;1.57;;;1.47;;
9892;SDS011;4985;49.092;8.542;2023-02-28T02:31:37;2.50;;;1.40;;
9892;SDS011;4985;49.092;8.542;2023-02-28T02:34:22;1.93;;;1.67;;
9892;SDS011;4985;49.092;8.542;2023-02-28T02:36:58;1.70;;;1.40;;
9892;SDS011;4985;49.092;8.542;2023-02-28T02:39:36;2.57;;;1.90;;
9892;SDS011;4985;49.092;8.542;2023-02-28T02:42:13;1.63;;;1.53;;
9892;SDS011;4985;49.092;8.542;2023-02-28T02:44:45;2.03;;;1.57;;
9892;SDS011;4985;49.092;8.542;2023-02-28T02:47:15;1.50;;;1.40;;
9892;SDS011;4985;49.092;8.542;2023-02-28T02:49:46;2.10;;;1.50;;
9892;SDS011;4985;49.092;8.542;2023-02-28T02:52:18;2.47;;;1.70;;
9892;SDS011;4985;49.092;8.542;2023-02-28T02:54:48;2.37;;;1.67;;
9892;SDS011;4985;49.092;8.542;2023-02-28T02:57:19;3.07;;;1.93;;
9892;SDS011;4985;49.092;8.542;2023-02-28T02:59:49;1.87;;;1.67;;
9892;SDS011;4985;49.092;8.542;2023-02-28T03:02:19;1.40;;;1.30;;
9892;SDS011;4985;49.092;8.542;2023-02-28T03:04:50;2.30;;;1.43;;
9892;SDS011;4985;49.092;8.542;2023-02-28T03:07:18;2.17;;;1.93;;
9892;SDS011;4985;49.092;8.542;2023-02-28T03:09:50;1.83;;;1.70;;
9892;SDS011;4985;49.092;8.542;2023-02-28T03:12:18;1.87;;;1.43;;
9892;SDS011;4985;49.092;8.542;2023-02-28T03:14:48;2.30;;;1.60;;
9892;SDS011;4985;49.092;8.542;2023-02-28T03:20:30;2.40;;;1.50;;
9892;SDS011;4985;49.092;8.542;2023-02-28T03:23:08;1.80;;;1.63;;
9892;SDS011;4985;49.092;8.542;2023-02-28T03:25:45;1.90;;;1.63;;
9892;SDS011;4985;49.092;8.542;2023-02-28T03:28:22;4.37;;;1.73;;
9892;SDS011;4985;49.092;8.542;2023-02-28T03:30:58;2.53;;;1.47;;
9892;SDS011;4985;49.092;8.542;2023-02-28T03:33:28;1.83;;;1.70;;
9892;SDS011;4985;49.092;8.542;2023-02-28T03:36:02;2.77;;;1.70;;
9892;SDS011;4985;49.092;8.542;2023-02-28T03:38:35;1.67;;;1.50;;
9892;SDS011;4985;49.092;8.542;2023-02-28T03:41:06;2.27;;;1.70;;
9892;SDS011;4985;49.092;8.542;2023-02-28T03:43:39;2.53;;;1.80;;
9892;SDS011;4985;49.092;8.542;2023-02-28T03:46:11;1.67;;;1.57;;
9892;SDS011;4985;49.092;8.542;2023-02-28T03:48:42;2.03;;;1.70;;
9892;SDS011;4985;49.092;8.542;2023-02-28T03:51:14;1.43;;;1.33;;
9892;SDS011;4985;49.092;8.542;2023-02-28T03:53:44;2.30;;;1.90;;
9892;SDS011;4985;49.092;8.542;2023-02-28T03:56:15;1.93;;;1.57;;
9892;SDS011;4985;49.092;8.542;2023-02-28T03:58:47;1.77;;;1.67;;
9892;SDS011;4985;49.092;8.542;2023-02-28T04:01:18;2.27;;;1.83;;
9892;SDS011;4985;49.092;8.542;2023-02-28T04:03:49;2.63;;;2.00;;
9892;SDS011;4985;49.092;8.542;2023-02-28T04:06:18;2.70;;;1.70;;
9892;SDS011;4985;49.092;8.542;2023-02-28T04:08:47;3.07;;;2.17;;
9892;SDS011;4985;49.092;8.542;2023-02-28T04:11:17;2.13;;;1.93;;
9892;SDS011;4985;49.092;8.542;2023-02-28T04:13:47;2.03;;;1.80;;
9892;SDS011;4985;49.092;8.542;2023-02-28T04:16:14;2.80;;;1.77;;
9892;SDS011;4985;49.092;8.542;2023-02-28T04:18:40;2.23;;;1.93;;
9892;SDS011;4985;49.092;8.542;2023-02-28T04:21:08;2.80;;;2.03;;
9892;SDS011;4985;49.092;8.542;2023-02-28T04:23:38;2.87;;;1.80;;
9892;SDS011;4985;49.092;8.542;2023-02-28T04:26:04;2.47;;;1.80;;
9892;SDS011;4985;49.092;8.542;2023-02-28T04:28:32;4.30;;;1.93;;
9892;SDS011;4985;49.092;8.542;2023-02-28T04:30:59;1.13;;;1.00;;
9892;SDS011;4985;49.092;8.542;2023-02-28T04:33:27;2.70;;;1.93;;
9892;SDS011;4985;49.092;8.542;2023-02-28T04:35:59;2.17;;;1.80;;
9892;SDS011;4985;49.092;8.542;2023-02-28T04:38:27;3.07;;;2.23;;
9892;SDS011;4985;49.092;8.542;2023-02-28T04:40:57;2.73;;;1.93;;
9892;SDS011;4985;49.092;8.542;2023-02-28T04:43:25;2.17;;;1.97;;
9892;SDS011;4985;49.092;8.542;2023-02-28T04:45:52;2.40;;;1.90;;
9892;SDS011;4985;49.092;8.542;2023-02-28T04:48:19;2.70;;;2.10;;
9892;SDS011;4985;49.092;8.542;2023-02-28T04:50:46;2.33;;;2.10;;
9892;SDS011;4985;49.092;8.542;2023-02-28T04:53:12;2.03;;;1.80;;
9892;SDS011;4985;49.092;8.542;2023-02-28T04:55:39;3.27;;;1.90;;
9892;SDS011;4985;49.092;8.542;2023-02-28T04:58:07;3.27;;;2.30;;
9892;SDS011;4985;49.092;8.542;2023-02-28T05:00:33;2.10;;;1.67;;
9892;SDS011;4985;49.092;8.542;2023-02-28T05:03:00;2.77;;;2.13;;
9892;SDS011;4985;49.092;8.542;2023-02-28T05:05:27;2.53;;;1.77;;
9892;SDS011;4985;49.092;8.542;2023-02-28T05:07:53;2.23;;;2.03;;
9892;SDS011;4985;49.092;8.542;2023-02-28T05:10:20;2.90;;;1.63;;
9892;SDS011;4985;49.092;8.542;2023-02-28T05:12:47;2.30;;;1.93;;
9892;SDS011;4985;49.092;8.542;2023-02-28T05:15:16;2.07;;;1.83;;
9892;SDS011;4985;49.092;8.542;2023-02-28T05:17:43;2.40;;;1.90;;
9892;SDS011;4985;49.092;8.542;2023-02-28T05:20:10;2.63;;;2.07;;
9892;SDS011;4985;49.092;8.542;2023-02-28T05:22:38;2.00;;;1.80;;
9892;SDS011;4985;49.092;8.542;2023-02-28T05:25:05;3.83;;;2.07;;
9892;SDS011;4985;49.092;8.542;2023-02-28T05:27:32;2.20;;;1.87;;
9892;SDS011;4985;49.092;8.542;2023-02-28T05:29:59;1.97;;;1.83;;
9892;SDS011;4985;49.092;8.542;2023-02-28T05:32:29;2.83;;;2.07;;
9892;SDS011;4985;49.092;8.542;2023-02-28T05:34:56;2.20;;;1.70;;
9892;SDS011;4985;49.092;8.542;2023-02-28T05:37:23;2.23;;;1.73;;
9892;SDS011;4985;49.092;8.542;2023-02-28T05:39:49;1.87;;;1.63;;
9892;SDS011;4985;49.092;8.542;2023-02-28T05:42:16;2.83;;;2.27;;
9892;SDS011;4985;49.092;8.542;2023-02-28T05:44:42;2.40;;;1.97;;
9892;SDS011;4985;49.092;8.542;2023-02-28T05:47:09;2.40;;;1.83;;
9892;SDS011;4985;49.092;8.542;2023-02-28T05:49:37;2.90;;;1.77;;
9892;SDS011;4985;49.092;8.542;2023-02-28T05:52:03;2.30;;;1.93;;
9892;SDS011;4985;49.092;8.542;2023-02-28T05:54:30;2.97;;;2.07;;
9892;SDS011;4985;49.092;8.542;2023-02-28T05:56:57;2.17;;;1.70;;
9892;SDS011;4985;49.092;8.542;2023-02-28T05:59:23;2.90;;;2.07;;
9892;SDS011;4985;49.092;8.542;2023-02-28T06:01:50;1.40;;;1.30;;
9892;SDS011;4985;49.092;8.542;2023-02-28T06:04:18;5.17;;;2.20;;
9892;SDS011;4985;49.092;8.542;2023-02-28T06:06:47;2.20;;;1.90;;
9892;SDS011;4985;49.092;8.542;2023-02-28T06:09:14;2.47;;;2.07;;
9892;SDS011;4985;49.092;8.542;2023-02-28T06:11:41;2.50;;;2.00;;
9892;SDS011;4985;49.092;8.542;2023-02-28T06:14:09;2.33;;;2.03;;
9892;SDS011;4985;49.092;8.542;2023-02-28T06:16:40;2.60;;;2.17;;
9892;SDS011;4985;49.092;8.542;2023-02-28T06:19:07;2.90;;;2.03;;
9892;SDS011;4985;49.092;8.542;2023-02-28T06:21:35;2.63;;;2.03;;
9892;SDS011;4985;49.092;8.542;2023-02-28T06:24:03;3.20;;;2.30;;
9892;SDS011;4985;49.092;8.542;2023-02-28T06:26:30;1.60;;;1.37;;
9892;SDS011;4985;49.092;8.542;2023-02-28T06:28:57;2.17;;;1.67;;
9892;SDS011;4985;49.092;8.542;2023-02-28T06:31:24;2.60;;;1.87;;
9892;SDS011;4985;49.092;8.542;2023-02-28T06:33:51;2.83;;;2.17;;
9892;SDS011;4985;49.092;8.542;2023-02-28T06:36:18;2.97;;;2.23;;
9892;SDS011;4985;49.092;8.542;2023-02-28T06:38:45;2.67;;;2.13;;
9892;SDS011;4985;49.092;8.542;2023-02-28T06:41:17;3.13;;;2.00;;
9892;SDS011;4985;49.092;8.542;2023-02-28T06:43:44;2.63;;;2.20;;
9892;SDS011;4985;49.092;8.542;2023-02-28T06:46:11;3.23;;;2.27;;
9892;SDS011;4985;49.092;8.542;2023-02-28T06:48:39;2.93;;;1.83;;
9892;SDS011;4985;49.092;8.542;2023-02-28T06:51:06;3.17;;;2.30;;
9892;SDS011;4985;49.092;8.542;2023-02-28T06:53:34;1.87;;;1.73;;
9892;SDS011;4985;49.092;8.542;2023-02-28T06:56:03;2.27;;;2.07;;
9892;SDS011;4985;49.092;8.542;2023-02-28T06:58:32;3.30;;;2.57;;
9892;SDS011;4985;49.092;8.542;2023-02-28T07:01:00;2.20;;;2.00;;
9892;SDS011;4985;49.092;8.542;2023-02-28T07:03:27;2.90;;;2.00;;
9892;SDS011;4985;49.092;8.542;2023-02-28T07:05:53;2.73;;;1.90;;
9892;SDS011;4985;49.092;8.542;2023-02-28T07:08:21;3.67;;;2.63;;
9892;SDS011;4985;49.092;8.542;2023-02-28T07:10:51;3.90;;;2.93;;
9892;SDS011;4985;49.092;8.542;2023-02-28T07:13:18;4.83;;;2.73;;
9892;SDS011;4985;49.092;8.542;2023-02-28T07:15:52;3.00;;;2.37;;
9892;SDS011;4985;49.092;8.542;2023-02-28T07:18:19;2.07;;;1.90;;
9892;SDS011;4985;49.092;8.542;2023-02-28T07:20:45;3.07;;;2.30;;
9892;SDS011;4985;49.092;8.542;2023-02-28T07:23:12;5.10;;;3.37;;
9892;SDS011;4985;49.092;8.542;2023-02-28T07:25:39;2.83;;;2.23;;
9892;SDS011;4985;49.092;8.542;2023-02-28T07:28:05;1.27;;;1.17;;
9892;SDS011;4985;49.092;8.542;2023-02-28T07:30:32;3.17;;;1.70;;
9892;SDS011;4985;49.092;8.542;2023-02-28T07:33:00;3.03;;;2.70;;
9892;SDS011;4985;49.092;8.542;2023-02-28T07:35:26;3.47;;;2.30;;
9892;SDS011;4985;49.092;8.542;2023-02-28T07:37:53;4.60;;;2.50;;
9892;SDS011;4985;49.092;8.542;2023-02-28T07:40:19;3.60;;;2.60;;
9892;SDS011;4985;49.092;8.542;2023-02-28T07:42:46;2.90;;;2.30;;
9892;SDS011;4985;49.092;8.542;2023-02-28T07:45:13;2.40;;;1.73;;
9892;SDS011;4985;49.092;8.542;2023-02-28T07:47:39;3.03;;;2.10;;
9892;SDS011;4985;49.092;8.542;2023-02-28T07:50:10;3.13;;;2.37;;
9892;SDS011;4985;49.092;8.542;2023-02-28T07:52:38;3.97;;;2.23;;
9892;SDS011;4985;49.092;8.542;2023-02-28T07:55:07;5.27;;;3.13;;
9892;SDS011;4985;49.092;8.542;2023-02-28T07:57:35;4.83;;;3.47;;
9892;SDS011;4985;49.092;8.542;2023-02-28T08:00:02;3.53;;;2.70;;
9892;SDS011;4985;49.092;8.542;2023-02-28T08:02:29;1.70;;;1.37;;
9892;SDS011;4985;49.092;8.542;2023-02-28T08:04:56;3.37;;;2.63;;
9892;SDS011;4985;49.092;8.542;2023-02-28T08:07:24;3.90;;;2.93;;
9892;SDS011;4985;49.092;8.542;2023-02-28T08:09:51;2.97;;;2.37;;
9892;SDS011;4985;49.092;8.542;2023-02-28T08:12:17;3.57;;;2.50;;
9892;SDS011;4985;49.092;8.542;2023-02-28T08:14:44;2.70;;;2.20;;
9892;SDS011;4985;49.092;8.542;2023-02-28T08:17:10;0.70;;;0.70;;
9892;SDS011;4985;49.092;8.542;2023-02-28T08:19:37;3.87;;;2.27;;
9892;SDS011;4985;49.092;8.542;2023-02-28T08:22:04;3.23;;;2.70;;
9892;SDS011;4985;49.092;8.542;2023-02-28T08:24:32;4.00;;;2.30;;
9892;SDS011;4985;49.092;8.542;2023-02-28T08:26:59;4.70;;;3.20;;
9892;SDS011;4985;49.092;8.542;2023-02-28T08:29:25;8.53;;;5.73;;
9892;SDS011;4985;49.092;8.542;2023-02-28T08:31:52;4.63;;;2.90;;
9892;SDS011;4985;49.092;8.542;2023-02-28T08:34:19;4.43;;;2.97;;
9892;SDS011;4985;49.092;8.542;2023-02-28T08:36:45;0.50;;;0.50;;
9892;SDS011;4985;49.092;8.542;2023-02-28T08:39:12;2.87;;;2.37;;
9892;SDS011;4985;49.092;8.542;2023-02-28T08:41:41;3.33;;;1.97;;
9892;SDS011;4985;49.092;8.542;2023-02-28T08:44:09;3.20;;;2.33;;
9892;SDS011;4985;49.092;8.542;2023-02-28T08:46:35;0.77;;;0.77;;
9892;SDS011;4985;49.092;8.542;2023-02-28T08:49:02;0.40;;;0.40;;
9892;SDS011;4985;49.092;8.542;2023-02-28T08:51:28;0.50;;;0.50;;
9892;SDS011;4985;49.092;8.542;2023-02-28T08:53:57;0.60;;;0.60;;
9892;SDS011;4985;49.092;8.542;2023-02-28T08:56:25;0.83;;;0.83;;
9892;SDS011;4985;49.092;8.542;2023-02-28T08:58:54;0.50;;;0.50;;
9892;SDS011;4985;49.092;8.542;2023-02-28T09:01:22;0.60;;;0.60;;
9892;SDS011;4985;49.092;8.542;2023-02-28T09:03:52;4.13;;;3.00;;
9892;SDS011;4985;49.092;8.542;2023-02-28T09:06:19;4.23;;;3.20;;
9892;SDS011;4985;49.092;8.542;2023-02-28T09:08:47;5.63;;;3.50;;
9892;SDS011;4985;49.092;8.542;2023-02-28T09:11:14;2.73;;;2.10;;
9892;SDS011;4985;49.092;8.542;2023-02-28T09:13:41;3.60;;;2.40;;
9892;SDS011;4985;49.092;8.542;2023-02-28T09:16:11;3.70;;;3.00;;
9892;SDS011;4985;49.092;8.542;2023-02-28T09:18:39;6.70;;;3.43;;
9892;SDS011;4985;49.092;8.542;2023-02-28T09:21:07;4.30;;;2.77;;
9892;SDS011;4985;49.092;8.542;2023-02-28T09:23:38;3.40;;;2.40;;
9892;SDS011;4985;49.092;8.542;2023-02-28T09:26:05;3.53;;;2.70;;
9892;SDS011;4985;49.092;8.542;2023-02-28T09:28:32;0.70;;;0.70;;
9892;SDS011;4985;49.092;8.542;2023-02-28T09:30:58;3.93;;;2.57;;
9892;SDS011;4985;49.092;8.542;2023-02-28T09:33:27;4.37;;;3.37;;
9892;SDS011;4985;49.092;8.542;2023-02-28T09:35:57;5.87;;;2.97;;
9892;SDS011;4985;49.092;8.542;2023-02-28T09:38:26;4.30;;;3.50;;
9892;SDS011;4985;49.092;8.542;2023-02-28T09:40:55;6.17;;;4.30;;
9892;SDS011;4985;49.092;8.542;2023-02-28T09:43:25;5.97;;;4.30;;
9892;SDS011;4985;49.092;8.542;2023-02-28T09:45:55;5.60;;;3.37;;
9892;SDS011;4985;49.092;8.542;2023-02-28T09:48:29;4.83;;;2.80;;
9892;SDS011;4985;49.092;8.542;2023-02-28T09:51:02;8.53;;;2.80;;
9892;SDS011;4985;49.092;8.542;2023-02-28T09:53:32;3.67;;;1.90;;
9892;SDS011;4985;49.092;8.542;2023-02-28T09:56:01;3.97;;;3.23;;
9892;SDS011;4985;49.092;8.542;2023-02-28T09:58:32;0.60;;;0.60;;
9892;SDS011;4985;49.092;8.542;2023-02-28T10:01:05;3.03;;;2.43;;
9892;SDS011;4985;49.092;8.542;2023-02-28T10:03:37;7.03;;;4.20;;
9892;SDS011;4985;49.092;8.542;2023-02-28T10:06:07;6.80;;;4.80;;
9892;SDS011;4985;49.092;8.542;2023-02-28T10:08:39;5.67;;;3.07;;
9892;SDS011;4985;49.092;8.542;2023-02-28T10:11:12;4.50;;;2.93;;
9892;SDS011;4985;49.092;8.542;2023-02-28T10:13:46;3.87;;;2.70;;
9892;SDS011;4985;49.092;8.542;2023-02-28T10:16:20;4.67;;;3.30;;
9892;SDS011;4985;49.092;8.542;2023-02-28T10:18:52;5.20;;;3.33;;
9892;SDS011;4985;49.092;8.542;2023-02-28T10:21:23;3.60;;;3.30;;
9892;SDS011;4985;49.092;8.542;2023-02-28T10:23:56;5.73;;;3.00;;
9892;SDS011;4985;49.092;8.542;2023-02-28T10:26:28;6.53;;;3.67;;
9892;SDS011;4985;49.092;8.542;2023-02-28T10:28:57;4.90;;;2.93;;
9892;SDS011;4985;49.092;8.542;2023-02-28T10:31:24;3.77;;;3.17;;
9892;SDS011;4985;49.092;8.542;2023-02-28T10:33:52;4.60;;;3.50;;
9892;SDS011;4985;49.092;8.542;2023-02-28T10:36:19;4.23;;;3.57;;
9892;SDS011;4985;49.092;8.542;2023-02-28T10:38:47;3.57;;;2.97;;
9892;SDS011;4985;49.092;8.542;2023-02-28T10:41:15;3.37;;;2.77;;
9892;SDS011;4985;49.092;8.542;2023-02-28T10:43:52;4.47;;;3.47;;
9892;SDS011;4985;49.092;8.542;2023-02-28T10:46:19;4.60;;;3.30;;
9892;SDS011;4985;49.092;8.542;2023-02-28T10:49:00;4.73;;;3.03;;
9892;SDS011;4985;49.092;8.542;2023-02-28T10:51:34;5.27;;;3.20;;
9892;SDS011;4985;49.092;8.542;2023-02-28T10:54:02;5.80;;;4.00;;
9892;SDS011;4985;49.092;8.542;2023-02-28T10:56:30;5.20;;;4.57;;
9892;SDS011;4985;49.092;8.542;2023-02-28T10:58:58;4.80;;;3.43;;
9892;SDS011;4985;49.092;8.542;2023-02-28T11:01:34;8.23;;;5.30;;
9892;SDS011;4985;49.092;8.542;2023-02-28T11:04:04;5.07;;;3.40;;
9892;SDS011;4985;49.092;8.542;2023-02-28T11:06:43;3.77;;;3.07;;
9892;SDS011;4985;49.092;8.542;2023-02-28T11:09:15;7.17;;;4.17;;
9892;SDS011;4985;49.092;8.542;2023-02-28T11:11:46;9.00;;;4.30;;
9892;SDS011;4985;49.092;8.542;2023-02-28T11:14:17;5.37;;;3.40;;
9892;SDS011;4985;49.092;8.542;2023-02-28T11:16:47;4.20;;;3.30;;
9892;SDS011;4985;49.092;8.542;2023-02-28T11:19:18;5.50;;;3.57;;
9892;SDS011;4985;49.092;8.542;2023-02-28T11:21:51;4.40;;;3.43;;
9892;SDS011;4985;49.092;8.542;2023-02-28T11:24:22;5.10;;;3.17;;
9892;SDS011;4985;49.092;8.542;2023-02-28T11:26:50;4.47;;;3.10;;
9892;SDS011;4985;49.092;8.542;2023-02-28T11:29:18;5.50;;;4.37;;
9892;SDS011;4985;49.092;8.542;2023-02-28T11:32:00;3.80;;;2.93;;
9892;SDS011;4985;49.092;8.542;2023-02-28T11:34:35;4.87;;;2.97;;
9892;SDS011;4985;49.092;8.542;2023-02-28T11:37:03;4.97;;;3.37;;
9892;SDS011;4985;49.092;8.542;2023-02-28T11:39:31;3.97;;;2.70;;
9892;SDS011;4985;49.092;8.542;2023-02-28T11:42:02;4.10;;;2.80;;
9892;SDS011;4985;49.092;8.542;2023-02-28T11:44:41;4.30;;;3.07;;
9892;SDS011;4985;49.092;8.542;2023-02-28T11:47:21;8.50;;;5.27;;
9892;SDS011;4985;49.092;8.542;2023-02-28T11:50:01;5.57;;;4.03;;
9892;SDS011;4985;49.092;8.542;2023-02-28T11:52:39;3.37;;;2.53;;
9892;SDS011;4985;49.092;8.542;2023-02-28T11:55:13;3.40;;;2.93;;
9892;SDS011;4985;49.092;8.542;2023-02-28T11:57:49;5.83;;;4.23;;
9892;SDS011;4985;49.092;8.542;2023-02-28T12:00:35;3.97;;;3.20;;
9892;SDS011;4985;49.092;8.542;2023-02-28T12:03:19;6.90;;;3.50;;
9892;SDS011;4985;49.092;8.542;2023-02-28T12:06:00;3.53;;;2.03;;
9892;SDS011;4985;49.092;8.542;2023-02-28T12:08:47;4.50;;;3.53;;
9892;SDS011;4985;49.092;8.542;2023-02-28T12:11:24;3.63;;;3.33;;
9892;SDS011;4985;49.092;8.542;2023-02-28T12:14:05;10.23;;;6.73;;
9892;SDS011;4985;49.092;8.542;2023-02-28T12:16:49;8.60;;;3.87;;
9892;SDS011;4985;49.092;8.542;2023-02-28T12:19:26;4.70;;;3.70;;
9892;SDS011;4985;49.092;8.542;2023-02-28T12:22:12;7.00;;;4.20;;
9892;SDS011;4985;49.092;8.542;2023-02-28T12:28:03;3.47;;;2.63;;
9892;SDS011;4985;49.092;8.542;2023-02-28T12:30:31;4.13;;;3.43;;
9892;SDS011;4985;49.092;8.542;2023-02-28T12:33:01;5.00;;;3.50;;
9892;SDS011;4985;49.092;8.542;2023-02-28T12:35:32;5.27;;;4.03;;
9892;SDS011;4985;49.092;8.542;2023-02-28T12:38:04;4.53;;;3.20;;
9892;SDS011;4985;49.092;8.542;2023-02-28T12:40:40;2.43;;;2.20;;
9892;SDS011;4985;49.092;8.542;2023-02-28T12:43:11;5.90;;;4.20;;
9892;SDS011;4985;49.092;8.542;2023-02-28T12:45:42;5.67;;;3.53;;
9892;SDS011;4985;49.092;8.542;2023-02-28T12:48:14;4.57;;;3.50;;
9892;SDS011;4985;49.092;8.542;2023-02-28T12:50:45;5.23;;;3.13;;
9892;SDS011;4985;49.092;8.542;2023-02-28T12:53:16;1.67;;;1.37;;
9892;SDS011;4985;49.092;8.542;2023-02-28T12:55:50;3.60;;;2.77;;
9892;SDS011;4985;49.092;8.542;2023-02-28T12:58:27;4.57;;;3.53;;
9892;SDS011;4985;49.092;8.542;2023-02-28T13:01:21;3.40;;;2.93;;
9892;SDS011;4985;49.092;8.542;2023-02-28T13:04:13;4.10;;;3.53;;
9892;SDS011;4985;49.092;8.542;2023-02-28T13:07:17;6.37;;;3.73;;
9892;SDS011;4985;49.092;8.542;2023-02-28T13:10:01;4.53;;;3.83;;
9892;SDS011;4985;49.092;8.542;2023-02-28T13:12:31;5.50;;;4.00;;
9892;SDS011;4985;49.092;8.542;2023-02-28T13:15:03;1.57;;;1.43;;
9892;SDS011;4985;49.092;8.542;2023-02-28T13:17:37;5.10;;;4.10;;
9892;SDS011;4985;49.092;8.542;2023-02-28T13:20:14;5.63;;;4.23;;
9892;SDS011;4985;49.092;8.542;2023-02-28T13:22:43;2.80;;;2.00;;
9892;SDS011;4985;49.092;8.542;2023-02-28T13:28:56;5.27;;;4.10;;
9892;SDS011;4985;49.092;8.542;2023-02-28T13:31:34;4.07;;;2.93;;
9892;SDS011;4985;49.092;8.542;2023-02-28T13:34:39;3.50;;;2.00;;
9892;SDS011;4985;49.092;8.542;2023-02-28T13:43:02;5.50;;;3.83;;
9892;SDS011;4985;49.092;8.542;2023-02-28T13:45:28;0.47;;;0.47;;
9892;SDS011;4985;49.092;8.542;2023-02-28T13:48:03;5.63;;;3.50;;
9892;SDS011;4985;49.092;8.542;2023-02-28T13:50:32;6.67;;;4.40;;
9892;SDS011;4985;49.092;8.542;2023-02-28T13:56:19;5.77;;;4.30;;
9892;SDS011;4985;49.092;8.542;2023-02-28T13:58:54;6.57;;;4.37;;
9892;SDS011;4985;49.092;8.542;2023-02-28T14:01:40;3.47;;;2.93;;
9892;SDS011;4985;49.092;8.542;2023-02-28T14:07:16;5.67;;;4.50;;
9892;SDS011;4985;49.092;8.542;2023-02-28T14:09:46;5.60;;;4.23;;
9892;SDS011;4985;49.092;8.542;2023-02-28T14:18:17;5.13;;;4.60;;
9892;SDS011;4985;49.092;8.542;2023-02-28T14:20:49;4.67;;;4.20;;
9892;SDS011;4985;49.092;8.542;2023-02-28T14:23:33;5.73;;;4.27;;
9892;SDS011;4985;49.092;8.542;2023-02-28T14:26:13;5.70;;;4.70;;
9892;SDS011;4985;49.092;8.542;2023-02-28T14:28:56;0.60;;;0.60;;
9892;SDS011;4985;49.092;8.542;2023-02-28T14:31:40;0.70;;;0.70;;
9892;SDS011;4985;49.092;8.542;2023-02-28T14:34:21;5.53;;;4.37;;
9892;SDS011;4985;49.092;8.542;2023-02-28T14:37:02;5.17;;;3.37;;
9892;SDS011;4985;49.092;8.542;2023-02-28T14:39:30;0.77;;;0.73;;
9892;SDS011;4985;49.092;8.542;2023-02-28T14:41:57;5.27;;;3.67;;
9892;SDS011;4985;49.092;8.542;2023-02-28T14:44:28;5.83;;;4.90;;
9892;SDS011;4985;49.092;8.542;2023-02-28T14:46:55;5.23;;;3.53;;
9892;SDS011;4985;49.092;8.542;2023-02-28T14:49:26;8.73;;;4.67;;
9892;SDS011;4985;49.092;8.542;2023-02-28T14:52:03;6.00;;;4.57;;
9892;SDS011;4985;49.092;8.542;2023-02-28T14:54:34;9.90;;;4.63;;
9892;SDS011;4985;49.092;8.542;2023-02-28T14:57:01;10.87;;;5.57;;
9892;SDS011;4985;49.092;8.542;2023-02-28T14:59:29;7.57;;;5.00;;
9892;SDS011;4985;49.092;8.542;2023-02-28T15:02:14;6.10;;;4.43;;
9892;SDS011;4985;49.092;8.542;2023-02-28T15:04:42;6.70;;;4.60;;
9892;SDS011;4985;49.092;8.542;2023-02-28T15:07:11;8.00;;;5.77;;
9892;SDS011;4985;49.092;8.542;2023-02-28T15:09:40;5.67;;;4.50;;
9892;SDS011;4985;49.092;8.542;2023-02-28T15:12:07;6.50;;;4.77;;
9892;SDS011;4985;49.092;8.542;2023-02-28T15:14:39;5.43;;;4.37;;
9892;SDS011;4985;49.092;8.542;2023-02-28T15:17:11;7.40;;;4.67;;
9892;SDS011;4985;49.092;8.542;2023-02-28T15:19:48;0.63;;;0.63;;
9892;SDS011;4985;49.092;8.542;2023-02-28T15:22:20;5.53;;;4.17;;
9892;SDS011;4985;49.092;8.542;2023-02-28T15:24:54;2.53;;;1.83;;
9892;SDS011;4985;49.092;8.542;2023-02-28T15:27:21;6.53;;;4.70;;
9892;SDS011;4985;49.092;8.542;2023-02-28T15:29:53;4.00;;;3.13;;
9892;SDS011;4985;49.092;8.542;2023-02-28T15:32:26;5.77;;;4.83;;
9892;SDS011;4985;49.092;8.542;2023-02-28T15:34:54;6.47;;;4.77;;
9892;SDS011;4985;49.092;8.542;2023-02-28T15:37:30;5.50;;;4.37;;
9892;SDS011;4985;49.092;8.542;2023-02-28T15:40:07;5.50;;;4.27;;
9892;SDS011;4985;49.092;8.542;2023-02-28T15:42:39;2.87;;;1.77;;
9892;SDS011;4985;49.092;8.542;2023-02-28T15:48:00;0.70;;;0.70;;
9892;SDS011;4985;49.092;8.542;2023-02-28T15:50:27;2.17;;;1.90;;
9892;SDS011;4985;49.092;8.542;2023-02-28T15:52:55;2.53;;;2.30;;
9892;SDS011;4985;49.092;8.542;2023-02-28T15:55:23;5.23;;;3.83;;
9892;SDS011;4985;49.092;8.542;2023-02-28T15:57:53;5.67;;;3.77;;
9892;SDS011;4985;49.092;8.542;2023-02-28T16:00:25;5.47;;;4.10;;
9892;SDS011;4985;49.092;8.542;2023-02-28T16:02:52;5.70;;;3.63;;
9892;SDS011;4985;49.092;8.542;2023-02-28T16:05:21;4.87;;;4.00;;
9892;SDS011;4985;49.092;8.542;2023-02-28T16:07:53;5.93;;;3.77;;
9892;SDS011;4985;49.092;8.542;2023-02-28T16:10:22;6.40;;;4.67;;
9892;SDS011;4985;49.092;8.542;2023-02-28T16:12:52;5.80;;;4.07;;